createdAt,value
2023-04-07T00:02:20.010Z,3.97
2023-04-07T00:04:49.003Z,4.18
2023-04-07T00:09:43.797Z,4.10
2023-04-07T00:12:11.301Z,3.80
2023-04-07T00:14:39.002Z,3.58
2023-04-07T00:17:06.451Z,4.47
2023-04-07T00:19:35.833Z,3.67
2023-04-07T00:22:04.668Z,3.05
2023-04-07T00:24:34.623Z,3.65
2023-04-07T00:27:02.645Z,3.20
2023-04-07T00:29:30.167Z,3.78
2023-04-07T00:31:57.702Z,3.72
2023-04-07T00:34:25.356Z,3.75
2023-04-07T00:36:53.317Z,3.53
2023-04-07T00:39:22.151Z,4.25
2023-04-07T00:41:51.231Z,3.53
2023-04-07T00:44:18.761Z,3.45
2023-04-07T00:46:48.658Z,3.55
2023-04-07T00:49:17.744Z,3.70
2023-04-07T00:54:13.685Z,2.90
2023-04-07T00:56:43.792Z,3.22
2023-04-07T00:59:11.609Z,3.63
2023-04-07T01:01:46.700Z,2.92
2023-04-07T01:04:23.798Z,3.35
2023-04-07T01:06:56.481Z,3.70
2023-04-07T01:09:30.293Z,3.97
2023-04-07T01:12:08.930Z,3.67
2023-04-07T01:14:42.162Z,2.97
2023-04-07T01:17:13.174Z,3.28
2023-04-07T01:19:46.292Z,3.58
2023-04-07T01:22:17.796Z,3.17
2023-04-07T01:25:07.098Z,3.75
2023-04-07T01:27:44.471Z,3.78
2023-04-07T01:30:16.739Z,3.67
2023-04-07T01:32:47.984Z,2.53
2023-04-07T01:35:16.815Z,3.50
2023-04-07T01:37:46.572Z,3.92
2023-04-07T01:40:14.729Z,3.53
2023-04-07T01:42:43.729Z,3.33
2023-04-07T01:47:41.875Z,3.42
2023-04-07T01:50:12.046Z,3.78
2023-04-07T01:52:40.927Z,3.88
2023-04-07T01:55:10.117Z,4.22
2023-04-07T01:57:37.551Z,4.72
2023-04-07T02:00:06.150Z,4.15
2023-04-07T02:02:37.550Z,2.75
2023-04-07T02:05:13.509Z,3.65
2023-04-07T02:07:47.374Z,3.67
2023-04-07T02:10:17.406Z,3.58
2023-04-07T02:12:46.995Z,3.65
2023-04-07T02:15:16.203Z,3.58
2023-04-07T02:17:47.504Z,3.58
2023-04-07T02:20:18.064Z,3.63
2023-04-07T02:22:48.295Z,4.45
2023-04-07T02:25:22.916Z,4.25
2023-04-07T02:27:50.553Z,4.65
2023-04-07T02:30:18.363Z,3.97
2023-04-07T02:32:48.273Z,4.80
2023-04-07T02:35:17.639Z,4.55
2023-04-07T02:37:45.625Z,4.07
2023-04-07T02:40:13.743Z,3.85
2023-04-07T02:42:41.566Z,4.03
2023-04-07T02:45:10.352Z,4.57
2023-04-07T02:47:38.963Z,4.60
2023-04-07T02:50:07.522Z,4.40
2023-04-07T02:52:36.353Z,3.78
2023-04-07T02:57:31.642Z,2.47
2023-04-07T02:59:59.154Z,4.53
2023-04-07T03:02:26.722Z,3.72
2023-04-07T03:04:54.292Z,4.28
2023-04-07T03:07:22.012Z,4.45
2023-04-07T03:09:51.076Z,5.22
2023-04-07T03:12:18.580Z,4.57
2023-04-07T03:14:46.212Z,4.40
2023-04-07T03:17:13.658Z,4.68
2023-04-07T03:19:41.473Z,5.28
2023-04-07T03:22:10.655Z,3.88
2023-04-07T03:24:39.469Z,5.22
2023-04-07T03:27:08.295Z,4.60
2023-04-07T03:29:36.258Z,5.45
2023-04-07T03:32:03.790Z,4.80
2023-04-07T03:34:31.258Z,5.32
2023-04-07T03:36:58.751Z,5.70
2023-04-07T03:39:26.313Z,5.63
2023-04-07T03:41:53.795Z,4.50
2023-04-07T03:44:22.642Z,4.88
2023-04-07T03:46:50.641Z,4.30
2023-04-07T03:49:18.112Z,4.30
2023-04-07T03:51:45.662Z,4.90
2023-04-07T03:54:13.142Z,4.30
2023-04-07T03:56:40.894Z,3.88
2023-04-07T03:59:08.576Z,5.05
2023-04-07T04:01:37.532Z,4.80
2023-04-07T04:06:32.870Z,3.83
2023-04-07T04:09:00.314Z,3.72
2023-04-07T04:11:28.222Z,4.13
2023-04-07T04:13:56.223Z,4.18
2023-04-07T04:16:23.774Z,4.43
2023-04-07T04:18:52.609Z,3.88
2023-04-07T04:21:20.155Z,3.78
2023-04-07T04:23:47.634Z,4.07
2023-04-07T04:26:15.938Z,4.82
2023-04-07T04:28:44.705Z,3.55
2023-04-07T04:31:12.199Z,3.58
2023-04-07T04:33:40.369Z,3.97
2023-04-07T04:36:09.589Z,4.07
2023-04-07T04:38:37.063Z,3.78
2023-04-07T04:41:04.552Z,3.78
2023-04-07T04:43:35.353Z,3.72
2023-04-07T04:46:02.967Z,3.40
2023-04-07T04:48:31.415Z,5.07
2023-04-07T04:50:58.902Z,4.57
2023-04-07T04:53:27.751Z,4.30
2023-04-07T04:55:55.998Z,3.97
2023-04-07T04:58:23.450Z,3.60
2023-04-07T05:00:51.089Z,4.35
2023-04-07T05:03:18.972Z,5.72
2023-04-07T05:05:48.661Z,5.18
2023-04-07T05:08:16.412Z,4.80
2023-04-07T05:10:47.815Z,4.00
2023-04-07T05:13:15.421Z,4.07
2023-04-07T05:15:43.359Z,4.75
2023-04-07T05:18:11.044Z,3.97
2023-04-07T05:20:38.529Z,4.00
2023-04-07T05:23:06.244Z,5.13
2023-04-07T05:25:33.941Z,5.47
2023-04-07T05:28:02.785Z,4.72
2023-04-07T05:30:30.291Z,5.05
2023-04-07T05:32:57.879Z,5.85
2023-04-07T05:35:25.476Z,5.55
2023-04-07T05:37:52.962Z,4.72
2023-04-07T05:40:20.554Z,5.45
2023-04-07T05:42:48.066Z,5.40
2023-04-07T05:45:16.951Z,5.78
2023-04-07T05:47:44.433Z,4.82
2023-04-07T05:50:13.978Z,4.95
2023-04-07T05:52:41.479Z,4.72
2023-04-07T05:55:09.738Z,3.65
2023-04-07T05:57:37.541Z,6.22
2023-04-07T06:00:05.579Z,5.07
2023-04-07T06:02:34.602Z,5.45
2023-04-07T06:05:02.215Z,5.35
2023-04-07T06:07:32.040Z,5.47
2023-04-07T06:09:59.520Z,6.32
2023-04-07T06:12:27.031Z,4.88
2023-04-07T06:14:57.809Z,4.72
2023-04-07T06:17:25.792Z,7.35
2023-04-07T06:19:54.682Z,5.47
2023-04-07T06:22:22.177Z,6.18
2023-04-07T06:24:49.746Z,5.63
2023-04-07T06:27:21.396Z,5.10
2023-04-07T06:29:48.965Z,5.95
2023-04-07T06:32:16.985Z,5.97
2023-04-07T06:34:44.705Z,6.05
2023-04-07T06:37:13.710Z,5.07
2023-04-07T06:42:08.622Z,4.93
2023-04-07T06:44:36.112Z,6.18
2023-04-07T06:47:03.627Z,5.13
2023-04-07T06:49:37.286Z,6.18
2023-04-07T06:52:05.706Z,7.25
2023-04-07T06:54:34.660Z,6.03
2023-04-07T06:59:30.054Z,6.35
2023-04-07T07:01:57.683Z,5.65
2023-04-07T07:04:25.521Z,5.05
2023-04-07T07:06:53.105Z,6.50
2023-04-07T07:09:20.572Z,6.70
2023-04-07T07:11:52.152Z,6.47
2023-04-07T07:14:20.683Z,4.97
2023-04-07T07:16:48.192Z,5.28
2023-04-07T07:19:16.208Z,7.20
2023-04-07T07:21:45.961Z,6.72
2023-04-07T07:24:13.536Z,6.65
2023-04-07T07:26:45.178Z,5.65
2023-04-07T07:29:13.978Z,4.85
2023-04-07T07:31:41.457Z,5.97
2023-04-07T07:34:11.196Z,6.13
2023-04-07T07:36:38.680Z,4.85
2023-04-07T07:39:06.462Z,5.35
2023-04-07T07:41:33.994Z,5.15
2023-04-07T07:44:26.887Z,5.13
2023-04-07T07:46:54.369Z,5.60
2023-04-07T07:49:21.945Z,5.68
2023-04-07T07:51:49.485Z,3.97
2023-04-07T07:54:16.971Z,5.30
2023-04-07T07:56:47.346Z,4.35
2023-04-07T07:59:16.068Z,4.50
2023-04-07T08:01:46.720Z,5.45
2023-04-07T08:04:14.457Z,4.38
2023-04-07T08:06:41.958Z,3.40
2023-04-07T08:09:12.528Z,4.82
2023-04-07T08:11:39.999Z,4.63
2023-04-07T08:14:08.711Z,6.13
2023-04-07T08:16:39.407Z,4.72
2023-04-07T08:19:08.259Z,5.90
2023-04-07T08:24:06.230Z,4.60
2023-04-07T08:26:33.931Z,3.13
2023-04-07T08:29:04.347Z,5.15
2023-04-07T08:31:31.925Z,4.10
2023-04-07T08:33:59.439Z,4.90
2023-04-07T08:36:29.966Z,5.57
2023-04-07T08:38:58.576Z,5.20
2023-04-07T08:41:31.504Z,4.88
2023-04-07T08:43:59.156Z,6.30
2023-04-07T08:46:27.244Z,6.70
2023-04-07T08:48:57.349Z,4.50
2023-04-07T08:51:30.097Z,5.82
2023-04-07T08:54:06.324Z,5.20
2023-04-07T08:56:34.993Z,7.20
2023-04-07T08:59:02.653Z,5.63
2023-04-07T09:01:31.744Z,5.10
2023-04-07T09:03:59.819Z,4.22
2023-04-07T09:06:31.880Z,4.55
2023-04-07T09:08:59.419Z,4.50
2023-04-07T09:11:29.024Z,5.28
2023-04-07T09:13:58.906Z,4.70
2023-04-07T09:16:32.631Z,4.82
2023-04-07T09:19:00.425Z,5.15
2023-04-07T09:21:48.529Z,7.18
2023-04-07T09:24:23.747Z,5.45
2023-04-07T09:26:51.308Z,5.80
2023-04-07T09:29:22.168Z,4.32
2023-04-07T09:31:54.994Z,5.95
2023-04-07T09:34:28.215Z,5.75
2023-04-07T09:36:57.577Z,5.97
2023-04-07T09:39:25.602Z,5.15
2023-04-07T09:41:53.723Z,4.50
2023-04-07T09:44:21.453Z,5.20
2023-04-07T09:46:53.363Z,5.28
2023-04-07T09:49:21.407Z,5.03
2023-04-07T09:51:58.338Z,4.22
2023-04-07T09:54:34.380Z,5.68
2023-04-07T09:57:07.833Z,2.90
2023-04-07T09:59:40.159Z,4.88
2023-04-07T10:02:08.596Z,5.30
2023-04-07T10:04:36.266Z,4.20
2023-04-07T10:07:06.819Z,2.80
2023-04-07T10:09:34.342Z,5.15
2023-04-07T10:12:01.921Z,5.22
2023-04-07T10:14:33.331Z,5.20
2023-04-07T10:17:04.529Z,4.10
2023-04-07T10:19:34.217Z,5.47
2023-04-07T10:22:03.899Z,1.73
2023-04-07T10:24:45.970Z,2.65
2023-04-07T10:27:17.410Z,3.38
2023-04-07T10:29:48.933Z,1.55
2023-04-07T10:32:17.223Z,5.00
2023-04-07T10:34:58.437Z,1.52
2023-04-07T10:37:27.791Z,4.65
2023-04-07T10:40:31.253Z,5.15
2023-04-07T10:42:59.196Z,1.20
2023-04-07T10:45:57.849Z,4.20
2023-04-07T10:48:27.093Z,5.15
2023-04-07T10:51:17.840Z,6.22
2023-04-07T10:54:18.830Z,4.10
2023-04-07T10:57:14.005Z,5.47
2023-04-07T11:00:03.289Z,2.28
2023-04-07T11:02:35.211Z,2.58
2023-04-07T11:05:03.518Z,4.90
2023-04-07T11:07:51.561Z,3.15
2023-04-07T11:10:21.874Z,5.50
2023-04-07T11:13:06.095Z,4.95
2023-04-07T11:15:35.308Z,1.20
2023-04-07T11:18:27.717Z,4.68
2023-04-07T11:20:57.362Z,3.45
2023-04-07T11:23:27.214Z,4.25
2023-04-07T11:26:01.781Z,4.45
2023-04-07T11:28:31.596Z,1.98
2023-04-07T11:31:00.063Z,3.70
2023-04-07T11:35:57.763Z,1.75
2023-04-07T11:38:27.167Z,4.22
2023-04-07T11:40:55.972Z,4.05
2023-04-07T11:43:25.168Z,4.88
2023-04-07T11:46:08.288Z,5.30
2023-04-07T11:48:37.088Z,3.67
2023-04-07T11:53:33.628Z,1.52
2023-04-07T11:56:02.836Z,4.43
2023-04-07T11:58:30.629Z,4.18
2023-04-07T12:00:58.869Z,6.97
2023-04-07T12:03:27.864Z,5.07
2023-04-07T12:05:55.408Z,4.70
2023-04-07T12:08:23.012Z,4.53
2023-04-07T12:11:04.189Z,6.18
2023-04-07T12:13:31.771Z,6.20
2023-04-07T12:16:00.089Z,3.50
2023-04-07T12:18:29.506Z,5.40
2023-04-07T12:20:58.849Z,5.63
2023-04-07T12:23:27.108Z,6.80
2023-04-07T12:25:54.743Z,8.15
2023-04-07T12:28:22.208Z,5.20
2023-04-07T12:30:49.928Z,10.48
2023-04-07T12:33:17.434Z,6.13
2023-04-07T12:35:46.340Z,4.80
2023-04-07T12:38:13.906Z,5.43
2023-04-07T12:40:41.394Z,5.75
2023-04-07T12:43:08.934Z,4.22
2023-04-07T12:45:36.583Z,4.25
2023-04-07T12:48:04.417Z,7.35
2023-04-07T12:50:32.077Z,6.25
2023-04-07T12:53:03.409Z,4.82
2023-04-07T12:55:33.308Z,6.28
2023-04-07T12:58:00.806Z,4.20
2023-04-07T13:00:28.537Z,6.40
2023-04-07T13:02:56.564Z,5.43
2023-04-07T13:05:24.190Z,5.57
2023-04-07T13:07:51.624Z,2.60
2023-04-07T13:10:21.246Z,5.65
2023-04-07T13:12:49.626Z,5.50
2023-04-07T13:15:17.119Z,5.95
2023-04-07T13:17:44.626Z,5.10
2023-04-07T13:20:12.665Z,4.95
2023-04-07T13:22:49.321Z,4.85
2023-04-07T13:25:24.601Z,5.43
2023-04-07T13:27:52.032Z,5.15
2023-04-07T13:30:21.537Z,5.18
2023-04-07T13:32:50.307Z,4.97
2023-04-07T13:35:18.089Z,4.88
2023-04-07T13:37:45.700Z,4.63
2023-04-07T13:40:13.807Z,5.10
2023-04-07T13:42:44.298Z,2.53
2023-04-07T13:45:11.930Z,3.17
2023-04-07T13:47:41.988Z,3.58
2023-04-07T13:50:10.005Z,3.65
2023-04-07T13:52:37.496Z,3.05
2023-04-07T13:55:05.605Z,3.80
2023-04-07T13:57:33.109Z,4.40
2023-04-07T14:00:01.965Z,4.30
2023-04-07T14:02:30.195Z,5.70
2023-04-07T14:04:57.872Z,4.28
2023-04-07T14:07:25.597Z,3.75
2023-04-07T14:09:54.448Z,3.90
2023-04-07T14:12:23.479Z,3.92
2023-04-07T14:14:52.294Z,3.55
2023-04-07T14:17:21.200Z,4.15
2023-04-07T14:19:48.722Z,4.25
2023-04-07T14:22:16.337Z,3.90
2023-04-07T14:24:43.793Z,3.65
2023-04-07T14:27:11.489Z,3.65
2023-04-07T14:29:38.977Z,3.70
2023-04-07T14:32:06.419Z,3.72
2023-04-07T14:34:37.353Z,4.47
2023-04-07T14:37:04.938Z,4.00
2023-04-07T14:39:32.398Z,4.00
2023-04-07T14:42:00.587Z,4.78
2023-04-07T14:44:28.968Z,4.55
2023-04-07T14:46:56.533Z,4.60
2023-04-07T14:49:25.044Z,3.78
2023-04-07T14:51:54.077Z,3.90
2023-04-07T14:54:21.568Z,3.58
2023-04-07T14:56:49.533Z,3.58
2023-04-07T14:59:17.065Z,3.75
2023-04-07T15:01:44.631Z,4.07
2023-04-07T15:04:12.166Z,2.95
2023-04-07T15:06:41.808Z,4.10
2023-04-07T15:09:10.872Z,3.47
2023-04-07T15:11:38.348Z,3.40
2023-04-07T15:14:06.613Z,3.17
2023-04-07T15:16:34.497Z,2.75
2023-04-07T15:19:02.168Z,3.08
2023-04-07T15:21:29.671Z,3.70
2023-04-07T15:23:57.184Z,3.03
2023-04-07T15:26:26.064Z,2.03
2023-04-07T15:28:53.549Z,2.80
2023-04-07T15:31:22.294Z,2.83
2023-04-07T15:33:50.062Z,2.60
2023-04-07T15:36:17.767Z,3.38
2023-04-07T15:38:45.313Z,3.30
2023-04-07T15:41:16.414Z,3.15
2023-04-07T15:43:45.429Z,3.45
2023-04-07T15:46:12.928Z,3.45
2023-04-07T15:48:40.458Z,3.08
2023-04-07T15:51:07.967Z,3.58
2023-04-07T15:53:35.925Z,3.25
2023-04-07T15:56:03.443Z,4.13
2023-04-07T15:58:31.892Z,3.95
2023-04-07T16:01:00.877Z,4.60
2023-04-07T16:03:29.008Z,5.25
2023-04-07T16:05:56.926Z,3.65
2023-04-07T16:08:24.793Z,3.13
2023-04-07T16:10:52.272Z,3.33
2023-04-07T16:13:19.859Z,3.50
2023-04-07T16:15:47.330Z,4.13
2023-04-07T16:18:16.579Z,3.28
2023-04-07T16:20:44.092Z,4.82
2023-04-07T16:23:12.595Z,4.10
2023-04-07T16:25:40.142Z,4.45
2023-04-07T16:28:07.613Z,3.30
2023-04-07T16:30:35.237Z,4.28
2023-04-07T16:33:03.222Z,4.20
2023-04-07T16:35:32.339Z,3.67
2023-04-07T16:38:03.839Z,3.85
2023-04-07T16:40:31.353Z,4.18
2023-04-07T16:42:58.892Z,5.20
2023-04-07T16:45:26.360Z,4.20
2023-04-07T16:47:53.854Z,5.20
2023-04-07T16:50:21.532Z,5.55
2023-04-07T16:52:50.499Z,5.20
2023-04-07T16:55:18.074Z,4.65
2023-04-07T16:57:45.564Z,4.80
2023-04-07T17:00:14.276Z,5.15
2023-04-07T17:05:10.255Z,4.68
2023-04-07T17:07:37.736Z,5.72
2023-04-07T17:10:07.825Z,4.97
2023-04-07T17:12:35.568Z,4.53
2023-04-07T17:15:03.203Z,5.07
2023-04-07T17:17:30.687Z,4.57
2023-04-07T17:19:59.615Z,4.78
2023-04-07T17:22:27.295Z,4.28
2023-04-07T17:24:54.808Z,3.25
2023-04-07T17:27:23.617Z,4.18
2023-04-07T17:29:51.084Z,4.57
2023-04-07T17:32:18.650Z,5.07
2023-04-07T17:34:46.231Z,4.15
2023-04-07T17:37:13.725Z,4.53
2023-04-07T17:39:41.386Z,4.40
2023-04-07T17:42:10.801Z,4.53
2023-04-07T17:44:39.638Z,4.78
2023-04-07T17:47:08.893Z,4.43
2023-04-07T17:49:36.318Z,4.75
2023-04-07T17:52:03.862Z,5.05
2023-04-07T17:54:31.771Z,4.93
2023-04-07T17:56:59.214Z,5.07
2023-04-07T17:59:26.745Z,4.95
2023-04-07T18:01:55.949Z,5.15
2023-04-07T18:04:23.643Z,4.35
2023-04-07T18:06:51.235Z,4.28
2023-04-07T18:09:18.949Z,4.30
2023-04-07T18:11:46.419Z,4.28
2023-04-07T18:14:13.864Z,3.78
2023-04-07T18:16:41.387Z,4.22
2023-04-07T18:19:10.227Z,3.78
2023-04-07T18:21:37.701Z,3.72
2023-04-07T18:24:05.292Z,3.85
2023-04-07T18:26:33.000Z,3.42
2023-04-07T18:29:02.605Z,3.72
2023-04-07T18:31:30.223Z,3.25
2023-04-07T18:33:57.675Z,4.38
2023-04-07T18:36:27.231Z,3.97
2023-04-07T18:38:54.883Z,5.13
2023-04-07T18:41:22.452Z,4.95
2023-04-07T18:43:50.204Z,5.50
2023-04-07T18:46:17.995Z,5.28
2023-04-07T18:48:45.475Z,5.40
2023-04-07T18:51:12.999Z,6.18
2023-04-07T18:53:41.908Z,6.18
2023-04-07T18:56:09.504Z,4.72
2023-04-07T18:58:43.683Z,5.20
2023-04-07T19:01:11.527Z,6.07
2023-04-07T19:03:39.511Z,6.85
2023-04-07T19:06:07.138Z,7.88
2023-04-07T19:08:34.794Z,8.25
2023-04-07T19:11:03.648Z,8.23
2023-04-07T19:13:31.097Z,7.28
2023-04-07T19:15:58.747Z,6.90
2023-04-07T19:18:28.077Z,7.13
2023-04-07T19:20:55.902Z,6.18
2023-04-07T19:23:23.374Z,5.18
2023-04-07T19:25:50.918Z,6.05
2023-04-07T19:28:19.859Z,5.53
2023-04-07T19:30:47.476Z,6.28
2023-04-07T19:33:16.037Z,6.53
2023-04-07T19:35:43.587Z,6.18
2023-04-07T19:38:11.282Z,6.28
2023-04-07T19:40:38.856Z,7.32
2023-04-07T19:43:07.333Z,7.00
2023-04-07T19:45:36.581Z,8.27
2023-04-07T19:48:04.420Z,7.32
2023-04-07T19:50:31.978Z,7.95
2023-04-07T19:52:59.416Z,7.63
2023-04-07T19:55:26.977Z,7.60
2023-04-07T19:57:54.430Z,7.88
2023-04-07T20:00:22.063Z,8.18
2023-04-07T20:02:51.312Z,7.68
2023-04-07T20:05:19.365Z,8.63
2023-04-07T20:07:46.919Z,7.28
2023-04-07T20:10:14.388Z,6.43
2023-04-07T20:12:41.911Z,6.75
2023-04-07T20:15:11.029Z,6.85
2023-04-07T20:17:38.478Z,7.05
2023-04-07T20:20:08.578Z,5.55
2023-04-07T20:22:36.384Z,4.90
2023-04-07T20:25:05.224Z,5.28
2023-04-07T20:27:33.462Z,4.90
2023-04-07T20:30:01.262Z,5.32
2023-04-07T20:32:29.251Z,6.85
2023-04-07T20:34:56.808Z,6.05
2023-04-07T20:37:26.309Z,5.63
2023-04-07T20:39:55.398Z,6.60
2023-04-07T20:42:23.082Z,6.47
2023-04-07T20:44:50.630Z,6.32
2023-04-07T20:47:18.168Z,7.18
2023-04-07T20:49:45.615Z,6.18
2023-04-07T20:52:13.143Z,6.10
2023-04-07T20:54:44.671Z,6.30
2023-04-07T20:57:12.241Z,6.45
2023-04-07T20:59:39.771Z,5.53
2023-04-07T21:02:07.949Z,5.32
2023-04-07T21:04:35.474Z,5.50
2023-04-07T21:07:02.915Z,5.75
2023-04-07T21:09:30.367Z,6.50
2023-04-07T21:12:01.833Z,5.78
2023-04-07T21:14:29.301Z,4.90
2023-04-07T21:16:56.839Z,5.75
2023-04-07T21:19:24.338Z,7.25
2023-04-07T21:21:52.075Z,5.80
2023-04-07T21:24:19.600Z,6.13
2023-04-07T21:26:47.075Z,5.53
2023-04-07T21:29:15.917Z,4.97
2023-04-07T21:34:10.984Z,4.00
2023-04-07T21:36:38.438Z,4.65
2023-04-07T21:39:06.568Z,5.13
2023-04-07T21:41:34.039Z,4.10
2023-04-07T21:44:02.395Z,5.18
2023-04-07T21:46:33.045Z,4.97
2023-04-07T21:49:00.546Z,5.07
2023-04-07T21:51:28.856Z,4.88
2023-04-07T21:53:56.413Z,5.07
2023-04-07T21:56:23.962Z,5.93
2023-04-07T21:58:51.445Z,6.13
2023-04-07T22:01:18.964Z,5.70
2023-04-07T22:03:47.939Z,5.57
2023-04-07T22:06:15.486Z,6.22
2023-04-07T22:08:48.868Z,5.93
2023-04-07T22:11:28.450Z,5.75
2023-04-07T22:13:56.011Z,7.15
2023-04-07T22:16:23.533Z,5.15
2023-04-07T22:18:52.349Z,5.75
2023-04-07T22:26:14.674Z,5.22
2023-04-07T22:28:42.280Z,5.40
2023-04-07T22:31:09.851Z,5.88
2023-04-07T22:33:37.656Z,5.28
2023-04-07T22:36:06.749Z,5.00
2023-04-07T22:38:34.246Z,4.82
2023-04-07T22:41:01.687Z,5.82
2023-04-07T22:43:29.229Z,6.00
2023-04-07T22:45:56.670Z,6.03
2023-04-07T22:48:24.131Z,5.63
2023-04-07T22:50:51.602Z,5.40
2023-04-07T22:53:20.411Z,5.43
2023-04-07T22:58:15.741Z,5.45
2023-04-07T23:00:43.267Z,5.88
2023-04-07T23:03:10.886Z,6.38
2023-04-07T23:05:38.415Z,5.88
2023-04-07T23:08:05.920Z,5.30
2023-04-07T23:10:35.057Z,5.13
2023-04-07T23:13:02.541Z,5.47
2023-04-07T23:15:29.992Z,6.18
2023-04-07T23:17:57.460Z,5.80
2023-04-07T23:20:25.010Z,5.28
2023-04-07T23:22:52.710Z,5.75
2023-04-07T23:25:20.356Z,4.28
2023-04-07T23:27:49.133Z,4.65
2023-04-07T23:30:16.766Z,4.00
2023-04-07T23:32:44.452Z,3.88
2023-04-07T23:35:12.075Z,3.72
2023-04-07T23:37:39.578Z,4.05
2023-04-07T23:40:08.374Z,3.95
2023-04-07T23:45:06.881Z,5.32
2023-04-07T23:47:34.425Z,4.78
2023-04-07T23:50:02.498Z,3.97
2023-04-07T23:52:29.965Z,4.53
2023-04-07T23:54:57.476Z,3.67
2023-04-07T23:57:25.160Z,3.40
2023-04-07T23:59:52.607Z,4.47
